The Joneses

Theatrical Performance
Domestic Box Office $1,475,746Details
International Box Office $2,065,819
Worldwide Box Office $3,541,565
Further financial details...

  1. Summary
  2. News
  3. Box Office
  4. Video Sales
  5. Full Financials
  6. Cast & Crew
  7. Trailer
  8. Buy

Metrics

Rotten Tomatoes
Critics FreshAudience Spilled
Critics
62% - Fresh
Audience
46% - Spilled

Movie Details

Production Budget:$10,000,000
Theatrical Release: April 16th, 2010 (Limited) by Roadside Attractions
Video Release: August 10th, 2010 by Fox Home Entertainment
MPAA Rating: R for language, some sexual content, teen drinking and drug use

DVD and Blu-ray Releases for August 10th, 2010

There are not a lot of prime releases on this week's list, but there are a few that I'm interested in. Date Night is the biggest release of the week and depending on how strong its home market debut is, it could be a worthy pick up, or even a contender for Pick of the Week. I won't know till the screener arrives. Crumb's Blu-ray review was also a tempting choice for Pick of the Week. As was Bugs Bunny: Hare Extraordinaire and Daffy Duck: Frustrated Fowl. But in the end I went with Max Headroom: The Complete Series as Pick of the Week. More...

Featured Blu-ray / DVD Review: The Joneses - Updated

The Joneses is a social satire that opened in nearly 200 theaters, which is way too many for a limited release, and with 63% positive reviews, which is far too low for a limited release. It comes as no real surprise that the film struggled during its opening and then disappeared shortly afterward. But will it perform better on the home market? More...

New Releases Pleasing on the Per Theater Chart

Please Give opened on top of the per theater chart with an impressive average of $23,625 in 5 theaters. This suggests significant room for expansion. With summer less than a week away, it could even be the first limited release of the season to expand enough to earn some measure of mainstream success. It wouldn't be the first Nicole Holofcener film to do so. The Human Centipede earned $12,424 in its lone theater during its opening weekend. Meanwhile, the overall box office leader, A Nightmare on Elm Street, just missed the $10,000 club with an average of $9,875. More...

Final Starts Out in First Place on Per Theater Chart

The City of Your Final Destination rode its pedigree to first place with $24,401 in its one theater, while Exit Through the Gift Shop was very close behind with an average of $21,345 in eight theaters. The Secret in Their Eyes opened in third place with an average of $16,787 in ten theaters. Of these three films, Exit earned the best reviews. However, the Oscar winning Secret could have the best long-term success. More...

Jonesing for Limited Releases

While there are only five limited releases on this week's list, two of them are opening in more than 100 theaters. However, both of those films are only earning mixed reviews. The best-reviewed limited release of the week is Exit Through the Gift Shop, which currently has 100% positive reviews. Hopefully that will translate into a strong start at the box office. More...

Cast

Amber Heard   
David Duchovny   
Demi Moore   

Daily Box Office Performance

DateRankGross% ChangeTheatersPer TheaterTotal GrossDays
2010/04/16 - $153,620   193 $796   $153,620 1
2010/04/17 - $219,675 +43% 193 $1,138   $373,295 2
2010/04/18 - $133,787 -39% 193 $693   $507,082 3
2010/04/19 - $44,888 -66% 193 $233   $551,970 4
2010/04/20 - $50,980 +14% 193 $264   $602,950 5
2010/04/21 - $50,498 -1% 193 $262   $653,448 6
2010/04/22 - $41,303 -18% 193 $214   $694,751 7
2010/04/23 - $82,563 +100% 217 $380   $777,314 8
2010/04/24 - $129,063 +56% 217 $595   $906,377 9
2010/04/25 - $78,772 -39% 217 $363   $985,149 10
2010/04/26 - $28,056 -64% 217 $129   $1,013,205 11
2010/04/27 - $30,418 +8% 217 $140   $1,043,623 12
2010/04/28 - $26,592 -13% 217 $123   $1,070,215 13
2010/04/29 - $29,256 +10% 217 $135   $1,099,471 14
2010/04/30 - $41,678 +42% 123 $339   $1,141,149 15
2010/05/01 - $60,443 +45% 123 $491   $1,201,592 16
2010/05/02 - $38,230 -37% 123 $311   $1,239,822 17
2010/05/03 - $12,443 -67% 123 $101   $1,252,265 18
2010/05/04 - $15,256 +23% 123 $124   $1,267,521 19
2010/05/05 - $12,266 -20% 123 $100   $1,279,787 20
2010/05/06 - $12,597 +3% 123 $102   $1,292,384 21
2010/05/07 - $14,566 +16% 68 $214   $1,306,950 22
2010/05/08 - $23,608 +62% 68 $347   $1,330,558 23
2010/05/09 - $17,529 -26% 68 $258   $1,348,087 24
2010/05/10 - $5,927 -66% 68 $87   $1,354,014 25
2010/05/11 - $6,790 +15% 68 $100   $1,360,804 26
2010/05/12 - $6,552 -4% 68 $96   $1,367,356 27
2010/05/13 - $6,587 +1% 68 $97   $1,373,943 28
2010/05/14 - $7,695 +17% 56 $137   $1,381,638 29
2010/05/15 - $12,215 +59% 56 $218   $1,393,853 30
2010/05/16 - $6,829 -44% 56 $122   $1,400,682 31
2010/05/17 - $3,380 -51% 56 $60   $1,404,062 32
2010/05/18 - $3,429 +1% 56 $61   $1,407,491 33
2010/05/19 - $4,157 +21% 56 $74   $1,411,648 34
2010/05/20 - $3,648 -12% 56 $65   $1,415,296 35
2010/05/21 - $3,299 -10% 27 $122   $1,418,595 36
2010/05/22 - $5,373 +63% 27 $199   $1,423,968 37
2010/05/23 - $3,286 -39% 27 $122   $1,427,254 38
2010/05/24 - $1,266 -61% 27 $47   $1,428,520 39
2010/05/25 - $1,187 -6% 27 $44   $1,429,707 40
2010/05/26 - $1,358 +14% 27 $50   $1,431,065 41
2010/05/27 - $882 -35% 27 $33   $1,431,947 42
2010/05/28 - $877 -1% 8 $110   $1,432,824 43
2010/05/29 - $1,320 +51% 8 $165   $1,434,144 44
2010/05/30 - $940 -29% 8 $118   $1,435,084 45
2010/05/31 79 $670 -29% 8 $84   $1,435,754 46
2010/06/01 - $339 -49% 8 $42   $1,436,093 47
2010/06/02 - $356 +5% 8 $45   $1,436,449 48
2010/06/03 - $378 +6% 8 $47   $1,436,827 49
2010/06/04 - $646 +71% 7 $92   $1,437,473 50
2010/06/05 - $653 +1% 7 $93   $1,438,126 51
2010/06/06 - $467 -28% 7 $67   $1,438,593 52
2010/06/07 - $141 -70% 7 $20   $1,438,734 53
2010/06/08 - $61 -57% 7 $9   $1,438,795 54
2010/06/09 - $232 +280% 7 $33   $1,439,027 55
2010/06/10 - $78 -66% 7 $11   $1,439,105 56
2010/06/11 - $653 +737% 8 $82   $1,439,758 57
2010/06/12 - $1,789 +174% 8 $224   $1,441,547 58
2010/06/13 - $1,023 -43% 8 $128   $1,442,570 59
2010/06/14 - $811 -21% 8 $101   $1,443,381 60
2010/06/15 - $522 -36% 8 $65   $1,443,903 61
2010/06/16 - $743 +42% 8 $93   $1,444,646 62
2010/06/17 - $1,830 +146% 10 $183   $1,446,476 63
2010/06/18 - $2,605 +42% 7 $372   $1,449,081 64
2010/06/19 - $4,158 +60% 7 $594   $1,453,239 65
2010/06/20 - $3,618 -13% 7 $517   $1,456,857 66
2010/06/21 - $900 -75% 7 $129   $1,457,757 67
2010/06/22 - $824 -8% 7 $118   $1,458,581 68
2010/06/23 - $1,382 +68% 7 $197   $1,459,963 69
2010/06/24 - $1,429 +3% 7 $204   $1,461,392 70
2010/06/25 - $860 -40% 3 $287   $1,462,252 71
2010/06/26 - $1,725 +101% 3 $575   $1,463,977 72
2010/06/27 - $1,214 -30% 3 $405   $1,465,191 73
2010/06/28 - $381 -69% 3 $127   $1,465,572 74
2010/06/29 - $468 +23% 3 $156   $1,466,040 75
2010/06/30 - $479 +2% 3 $160   $1,466,519 76
2010/07/01 - $469 -2% 3 $156   $1,466,988 77
2010/07/02 - $548 +17% 1 $548   $1,467,536 78
2010/07/03 - $1,006 +84% 1 $1,006   $1,468,542 79
2010/07/04 - $1,090 +8% 1 $1,090   $1,469,632 80
2010/07/05 76 $937 -14% 1 $937   $1,470,569 81
2010/07/06 - $464 -50% 1 $464   $1,471,033 82
2010/07/07 - $559 +20% 1 $559   $1,471,592 83
2010/07/08 - $461 -18% 1 $461   $1,472,053 84
2010/07/09 - $797 +73% 1 $797   $1,472,850 85
2010/07/10 - $807 +1% 1 $807   $1,473,657 86
2010/07/11 - $851 +5% 2 $426   $1,474,508 87
2010/07/12 - $306 -64% 1 $306   $1,474,814 88
2010/07/13 - $532 +74% 1 $532   $1,475,346 89
2010/07/14 - $400 -25% 1 $400   $1,475,746 90

Weekend Box Office Performance

DateRankGross% ChangeTheatersPer TheaterTotal GrossDays
2010/04/16 18 $507,082   193 $2,627   $507,082 3
2010/04/23 21 $290,398 -43% 217 $1,338   $985,149 10
2010/04/30 32 $140,351 -52% 123 $1,141   $1,239,822 17
2010/05/07 40 $55,703 -60% 68 $819   $1,348,087 24
2010/05/14 46 $26,543 -52% 56 $474   $1,400,486 31
2010/05/21 59 $11,287 -57% 27 $418   $1,426,583 38
2010/05/28 79 $3,137 -72% 8 $392   $1,435,084 45
2010/06/04 102 $1,766 -44% 7 $252   $1,438,593 52
2010/06/11 92 $3,465 +96% 8 $433   $1,442,570 59
2010/06/18 70 $10,381 +200% 7 $1,483   $1,456,857 66
2010/06/25 82 $3,799 -63% 3 $1,266   $1,465,191 73
2010/07/02 81 $2,644 -30% 1 $2,644   $1,469,632 80
2010/07/09 87 $2,455 -7% 2 $1,228   $1,474,508 87

Full financial estimates for this film, including domestic and international box office, video sales, video rentals, TV and ancillary revenue are available through our research services. For more information, please contact us at research@the-numbers.com.